createdAt,value
2019-02-07T00:02:23.435Z,9.93
2019-02-07T00:04:56.150Z,12.43
2019-02-07T00:07:27.920Z,12.23
2019-02-07T00:09:59.692Z,12.00
2019-02-07T00:12:31.264Z,9.18
2019-02-07T00:15:03.444Z,12.33
2019-02-07T00:17:35.253Z,13.28
2019-02-07T00:20:08.119Z,11.78
2019-02-07T00:22:39.489Z,11.75
2019-02-07T00:25:11.275Z,12.85
2019-02-07T00:27:42.970Z,12.95
2019-02-07T00:30:16.265Z,10.45
2019-02-07T00:32:49.050Z,14.80
2019-02-07T00:35:20.579Z,14.90
2019-02-07T00:37:53.129Z,13.80
2019-02-07T00:40:25.635Z,14.75
2019-02-07T00:42:56.659Z,14.55
2019-02-07T00:45:27.945Z,17.42
2019-02-07T00:47:59.500Z,16.90
2019-02-07T00:50:31.256Z,14.93
2019-02-07T00:53:02.776Z,17.32
2019-02-07T00:55:33.858Z,17.92
2019-02-07T00:58:05.367Z,16.17
2019-02-07T01:00:37.542Z,16.40
2019-02-07T01:03:08.998Z,16.12
2019-02-07T01:05:40.608Z,14.98
2019-02-07T01:08:12.802Z,14.90
2019-02-07T01:10:44.184Z,15.08
2019-02-07T01:13:15.652Z,16.23
2019-02-07T01:15:47.222Z,12.98
2019-02-07T01:18:18.466Z,14.80
2019-02-07T01:20:49.874Z,14.75
2019-02-07T01:23:21.862Z,13.98
2019-02-07T01:25:52.888Z,14.95
2019-02-07T01:28:24.663Z,15.25
2019-02-07T01:30:56.106Z,13.78
2019-02-07T01:33:27.599Z,14.60
2019-02-07T01:35:59.083Z,12.78
2019-02-07T01:38:30.088Z,11.03
2019-02-07T01:41:01.631Z,12.98
2019-02-07T01:43:32.880Z,11.05
2019-02-07T01:46:04.017Z,12.75
2019-02-07T01:48:35.299Z,9.90
2019-02-07T01:51:06.857Z,13.25
2019-02-07T01:53:38.705Z,12.45
2019-02-07T01:56:10.018Z,13.05
2019-02-07T01:58:41.566Z,13.28
2019-02-07T02:01:12.555Z,12.75
2019-02-07T02:03:44.063Z,10.53
2019-02-07T02:06:15.540Z,12.63
2019-02-07T02:08:46.666Z,12.23
2019-02-07T02:11:18.543Z,9.83
2019-02-07T02:13:49.969Z,10.55
2019-02-07T02:16:24.103Z,11.63
2019-02-07T02:18:54.924Z,12.00
2019-02-07T02:21:26.229Z,12.40
2019-02-07T02:23:57.318Z,10.60
2019-02-07T02:26:28.954Z,11.73
2019-02-07T02:29:00.975Z,11.80
2019-02-07T02:31:32.538Z,11.43
2019-02-07T02:34:04.212Z,13.38
2019-02-07T02:36:35.639Z,12.23
2019-02-07T02:39:09.493Z,12.53
2019-02-07T02:41:40.795Z,10.82
2019-02-07T02:44:11.800Z,14.73
2019-02-07T02:46:44.216Z,11.63
2019-02-07T02:49:15.444Z,12.40
2019-02-07T02:51:46.519Z,11.28
2019-02-07T02:54:49.546Z,11.25
2019-02-07T02:57:21.096Z,10.70
2019-02-07T02:59:52.585Z,12.10
2019-02-07T03:02:48.314Z,10.30
2019-02-07T03:05:38.521Z,8.98
2019-02-07T03:08:28.944Z,8.28
2019-02-07T03:11:18.064Z,7.50
2019-02-07T03:14:07.021Z,9.48
2019-02-07T03:17:00.597Z,8.23
2019-02-07T03:19:41.720Z,8.65
2019-02-07T03:22:25.927Z,7.80
2019-02-07T03:25:31.492Z,7.70
2019-02-07T03:28:33.850Z,9.95
2019-02-07T03:31:27.616Z,8.00
2019-02-07T03:34:12.163Z,8.80
2019-02-07T03:37:17.858Z,9.10
2019-02-07T03:40:11.505Z,6.15
2019-02-07T03:42:57.983Z,7.58
2019-02-07T03:46:02.875Z,8.75
2019-02-07T03:48:43.501Z,9.15
2019-02-07T03:51:25.631Z,8.98
2019-02-07T03:54:18.828Z,8.78
2019-02-07T03:56:58.577Z,8.45
2019-02-07T03:59:58.073Z,9.13
2019-02-07T04:02:40.874Z,7.30
2019-02-07T04:05:26.135Z,8.83
2019-02-07T04:08:14.444Z,8.38
2019-02-07T04:11:04.866Z,7.72
2019-02-07T04:13:55.686Z,8.28
2019-02-07T04:16:39.432Z,7.53
2019-02-07T04:19:45.364Z,7.25
2019-02-07T04:22:33.940Z,7.62
2019-02-07T04:25:22.969Z,5.75
2019-02-07T04:28:11.253Z,7.03
2019-02-07T04:30:58.708Z,7.60
2019-02-07T04:33:54.774Z,5.58
2019-02-07T04:36:36.839Z,4.80
2019-02-07T04:39:21.396Z,5.85
2019-02-07T04:42:06.823Z,6.62
2019-02-07T04:44:56.480Z,6.83
2019-02-07T04:47:45.448Z,4.47
2019-02-07T04:50:26.279Z,3.98
2019-02-07T04:53:06.571Z,5.37
2019-02-07T04:55:56.521Z,5.90
2019-02-07T04:58:39.942Z,5.15
2019-02-07T05:01:29.152Z,6.33
2019-02-07T05:04:09.539Z,5.40
2019-02-07T05:06:58.227Z,6.35
2019-02-07T05:10:00.466Z,6.42
2019-02-07T05:12:53.051Z,4.80
2019-02-07T05:15:49.030Z,6.25
2019-02-07T05:18:43.306Z,5.67
2019-02-07T05:21:33.690Z,7.10
2019-02-07T05:24:30.049Z,7.05
2019-02-07T05:27:19.140Z,8.80
2019-02-07T05:30:18.708Z,7.17
2019-02-07T05:33:08.065Z,7.53
2019-02-07T05:35:51.370Z,8.23
2019-02-07T05:38:42.968Z,8.35
2019-02-07T05:41:30.149Z,8.13
2019-02-07T05:44:25.990Z,7.95
2019-02-07T05:47:14.966Z,8.38
2019-02-07T05:49:58.597Z,8.68
2019-02-07T05:52:41.459Z,8.03
2019-02-07T05:55:30.743Z,6.87
2019-02-07T05:58:28.469Z,8.63
2019-02-07T06:01:15.534Z,8.68
2019-02-07T06:03:54.897Z,7.92
2019-02-07T06:06:54.828Z,8.00
2019-02-07T06:09:38.124Z,10.48
2019-02-07T06:12:36.968Z,12.93
2019-02-07T06:15:33.395Z,8.38
2019-02-07T06:18:42.397Z,8.30
2019-02-07T06:21:26.635Z,9.28
2019-02-07T06:24:08.660Z,10.03
2019-02-07T06:26:54.064Z,9.08
2019-02-07T06:29:43.612Z,10.43
2019-02-07T06:32:36.813Z,10.85
2019-02-07T06:35:34.613Z,10.48
2019-02-07T06:38:12.129Z,12.28
2019-02-07T06:41:01.718Z,10.38
2019-02-07T06:43:52.151Z,10.75
2019-02-07T06:46:42.349Z,10.75
2019-02-07T06:49:27.247Z,12.13
2019-02-07T06:52:11.816Z,12.25
2019-02-07T06:55:11.427Z,12.58
2019-02-07T06:58:00.015Z,9.93
2019-02-07T07:00:48.915Z,9.98
2019-02-07T07:03:50.963Z,12.35
2019-02-07T07:06:49.286Z,11.10
2019-02-07T07:09:37.973Z,13.78
2019-02-07T07:12:28.163Z,10.48
2019-02-07T07:15:15.324Z,10.90
2019-02-07T07:17:55.928Z,10.35
2019-02-07T07:20:37.763Z,13.85
2019-02-07T07:23:26.425Z,10.20
2019-02-07T07:26:24.749Z,9.40
2019-02-07T07:29:16.484Z,9.88
2019-02-07T07:32:05.585Z,9.88
2019-02-07T07:34:55.532Z,8.05
2019-02-07T07:37:38.992Z,8.95
2019-02-07T07:40:30.753Z,8.18
2019-02-07T07:43:10.346Z,8.65
2019-02-07T07:46:08.969Z,7.70
2019-02-07T07:49:05.515Z,11.57
2019-02-07T07:52:13.896Z,9.80
2019-02-07T07:55:02.182Z,11.35
2019-02-07T07:58:00.704Z,9.18
2019-02-07T08:00:49.334Z,8.50
2019-02-07T08:03:44.372Z,10.93
2019-02-07T08:06:43.660Z,8.93
2019-02-07T08:09:32.412Z,7.28
2019-02-07T08:12:25.874Z,9.85
2019-02-07T08:15:27.426Z,8.33
2019-02-07T08:18:17.621Z,6.45
2019-02-07T08:21:17.322Z,7.97
2019-02-07T08:24:11.731Z,7.95
2019-02-07T08:26:53.241Z,8.45
2019-02-07T08:29:47.856Z,7.72
2019-02-07T08:32:39.811Z,8.28
2019-02-07T08:35:28.960Z,8.15
2019-02-07T08:38:31.945Z,10.68
2019-02-07T08:41:20.530Z,8.35
2019-02-07T08:44:20.090Z,9.48
2019-02-07T08:47:13.689Z,9.05
2019-02-07T08:50:04.385Z,9.38
2019-02-07T08:52:57.853Z,10.23
2019-02-07T08:55:43.252Z,8.68
2019-02-07T08:58:27.826Z,9.28
2019-02-07T09:01:13.621Z,7.83
2019-02-07T09:04:02.013Z,8.85
2019-02-07T09:06:56.141Z,9.03
2019-02-07T09:10:01.752Z,8.60
2019-02-07T09:13:01.864Z,10.95
2019-02-07T09:15:54.486Z,10.45
2019-02-07T09:18:45.303Z,11.28
2019-02-07T09:21:39.034Z,10.40
2019-02-07T09:24:27.544Z,9.50
2019-02-07T09:27:29.860Z,11.88
2019-02-07T09:30:22.713Z,17.25
2019-02-07T09:33:11.868Z,9.35
2019-02-07T09:36:05.451Z,12.37
2019-02-07T09:38:52.768Z,11.57
2019-02-07T09:41:38.192Z,11.77
2019-02-07T09:44:30.919Z,10.90
2019-02-07T09:47:22.281Z,11.00
2019-02-07T09:50:11.546Z,11.88
2019-02-07T09:53:00.726Z,12.00
2019-02-07T09:55:49.856Z,10.33
2019-02-07T09:58:39.036Z,11.00
2019-02-07T10:01:35.429Z,11.53
2019-02-07T10:04:29.578Z,11.27
2019-02-07T10:07:13.206Z,12.37
2019-02-07T10:10:06.639Z,11.63
2019-02-07T10:12:55.990Z,13.83
2019-02-07T10:15:43.981Z,13.60
2019-02-07T10:18:38.014Z,12.73
2019-02-07T10:21:34.579Z,12.60
2019-02-07T10:24:23.793Z,13.33
2019-02-07T10:27:05.668Z,15.83
2019-02-07T10:29:42.714Z,13.43
2019-02-07T10:32:31.591Z,11.23
2019-02-07T10:35:22.798Z,12.70
2019-02-07T10:38:10.729Z,14.90
2019-02-07T10:40:59.102Z,15.20
2019-02-07T10:43:41.358Z,17.33
2019-02-07T10:46:33.641Z,16.90
2019-02-07T10:49:34.341Z,13.57
2019-02-07T10:52:23.389Z,13.70
2019-02-07T10:55:25.703Z,14.00
2019-02-07T10:58:25.521Z,14.55
2019-02-07T11:01:10.302Z,17.12
2019-02-07T11:04:02.117Z,18.80
2019-02-07T11:06:48.728Z,18.90
2019-02-07T11:09:45.092Z,19.10
2019-02-07T11:12:40.375Z,18.15
2019-02-07T11:15:25.955Z,17.42
2019-02-07T11:18:22.258Z,21.02
2019-02-07T11:21:11.527Z,19.80
2019-02-07T11:24:08.781Z,17.87
2019-02-07T11:27:05.222Z,18.35
2019-02-07T11:29:55.776Z,19.00
2019-02-07T11:32:37.422Z,20.12
2019-02-07T11:35:23.751Z,20.17
2019-02-07T11:38:07.422Z,19.98
2019-02-07T11:41:13.484Z,20.30
2019-02-07T11:44:22.322Z,20.43
2019-02-07T11:47:06.467Z,21.95
2019-02-07T11:49:49.411Z,19.15
2019-02-07T11:52:54.356Z,20.20
2019-02-07T11:55:35.597Z,18.87
2019-02-07T11:58:33.395Z,19.95
2019-02-07T12:01:28.671Z,19.82
2019-02-07T12:04:16.330Z,22.85
2019-02-07T12:07:01.093Z,19.82
2019-02-07T12:09:42.339Z,18.40
2019-02-07T12:12:50.981Z,21.02
2019-02-07T12:15:50.310Z,23.75
2019-02-07T12:18:40.478Z,17.30
2019-02-07T12:21:29.879Z,19.05
2019-02-07T12:24:18.510Z,17.67
2019-02-07T12:27:11.822Z,17.52
2019-02-07T12:30:20.049Z,19.62
2019-02-07T12:33:17.861Z,18.05
2019-02-07T12:36:08.124Z,19.60
2019-02-07T12:39:01.518Z,19.80
2019-02-07T12:41:52.223Z,19.77
2019-02-07T12:44:58.642Z,20.77
2019-02-07T12:47:54.741Z,22.52
2019-02-07T12:50:46.752Z,20.65
2019-02-07T12:53:28.931Z,23.92
2019-02-07T12:56:37.831Z,22.05
2019-02-07T12:59:30.685Z,23.27
2019-02-07T13:02:19.897Z,21.40
2019-02-07T13:05:00.649Z,21.35
2019-02-07T13:07:55.862Z,19.55
2019-02-07T13:10:49.535Z,24.67
2019-02-07T13:13:39.799Z,24.72
2019-02-07T13:16:28.942Z,22.20
2019-02-07T13:19:22.081Z,19.95
2019-02-07T13:22:21.624Z,21.85
2019-02-07T13:25:17.267Z,22.02
2019-02-07T13:28:16.964Z,22.87
2019-02-07T13:31:06.843Z,25.02
2019-02-07T13:34:03.721Z,22.67
2019-02-07T13:36:56.722Z,23.02
2019-02-07T13:39:47.350Z,19.23
2019-02-07T13:42:36.535Z,21.42
2019-02-07T13:45:31.496Z,24.27
2019-02-07T13:48:13.130Z,22.25
2019-02-07T13:51:02.474Z,20.70
2019-02-07T13:53:51.540Z,22.17
2019-02-07T13:56:40.682Z,20.75
2019-02-07T13:59:40.204Z,23.45
2019-02-07T14:02:24.378Z,25.92
2019-02-07T14:05:04.266Z,24.82
2019-02-07T14:08:09.751Z,26.17
2019-02-07T14:10:56.313Z,26.87
2019-02-07T14:13:49.698Z,23.90
2019-02-07T14:16:40.481Z,23.40
2019-02-07T14:19:33.664Z,24.10
2019-02-07T14:22:30.529Z,26.68
2019-02-07T14:25:39.307Z,21.02
2019-02-07T14:28:35.725Z,29.37
2019-02-07T14:31:28.830Z,29.48
2019-02-07T14:34:14.310Z,26.40
2019-02-07T14:37:14.010Z,25.80
2019-02-07T14:40:03.793Z,27.90
2019-02-07T14:42:56.855Z,27.93
2019-02-07T14:45:40.282Z,23.65
2019-02-07T14:48:23.428Z,26.73
2019-02-07T14:50:55.984Z,22.45
2019-02-07T14:53:27.534Z,22.02
2019-02-07T14:55:59.194Z,22.40
2019-02-07T14:58:31.575Z,25.40
2019-02-07T15:01:03.659Z,23.52
2019-02-07T15:03:36.423Z,24.43
2019-02-07T15:06:08.091Z,24.80
2019-02-07T15:08:39.934Z,23.20
2019-02-07T15:11:11.905Z,23.32
2019-02-07T15:13:43.539Z,24.80
2019-02-07T15:16:15.495Z,22.37
2019-02-07T15:18:47.307Z,25.05
2019-02-07T15:21:19.361Z,26.82
2019-02-07T15:23:51.414Z,20.60
2019-02-07T15:26:23.007Z,26.73
2019-02-07T15:28:54.668Z,22.58
2019-02-07T15:31:26.607Z,24.35
2019-02-07T15:33:57.701Z,23.38
2019-02-07T15:36:29.458Z,26.68
2019-02-07T15:39:01.425Z,22.85
2019-02-07T15:41:33.817Z,25.48
2019-02-07T15:44:06.103Z,26.55
2019-02-07T15:46:37.813Z,26.27
2019-02-07T15:49:09.688Z,31.50
2019-02-07T15:51:42.011Z,24.32
2019-02-07T15:54:13.658Z,25.08
2019-02-07T15:56:45.575Z,22.93
2019-02-07T15:59:30.936Z,23.07
2019-02-07T16:02:30.639Z,25.95
2019-02-07T16:05:02.681Z,24.43
2019-02-07T16:07:33.967Z,22.95
2019-02-07T16:10:09.095Z,22.30
2019-02-07T16:12:40.766Z,24.18
2019-02-07T16:15:13.224Z,25.85
2019-02-07T16:17:44.676Z,25.45
2019-02-07T16:20:17.966Z,21.12
2019-02-07T16:22:50.010Z,26.52
2019-02-07T16:25:21.548Z,25.40
2019-02-07T16:27:53.131Z,24.82
2019-02-07T16:30:24.655Z,23.57
2019-02-07T16:32:56.336Z,22.95
2019-02-07T16:35:28.388Z,22.50
2019-02-07T16:37:59.852Z,24.70
2019-02-07T16:40:31.538Z,23.05
2019-02-07T16:43:03.572Z,24.55
2019-02-07T16:45:35.703Z,22.87
2019-02-07T16:48:07.601Z,22.82
2019-02-07T16:50:39.328Z,19.42
2019-02-07T16:53:10.591Z,20.77
2019-02-07T16:55:42.232Z,23.70
2019-02-07T16:58:13.994Z,20.35
2019-02-07T17:00:45.883Z,22.45
2019-02-07T17:03:17.298Z,22.50
2019-02-07T17:05:49.189Z,22.42
2019-02-07T17:08:20.668Z,18.30
2019-02-07T17:10:52.662Z,21.93
2019-02-07T17:13:25.073Z,19.87
2019-02-07T17:15:56.639Z,18.42
2019-02-07T17:18:27.674Z,18.98
2019-02-07T17:20:59.071Z,21.48
2019-02-07T17:23:31.396Z,21.27
2019-02-07T17:26:03.170Z,17.55
2019-02-07T17:28:34.325Z,21.90
2019-02-07T17:31:05.987Z,20.95
2019-02-07T17:33:38.109Z,18.48
2019-02-07T17:36:09.551Z,20.97
2019-02-07T17:38:41.515Z,18.48
2019-02-07T17:41:13.807Z,20.62
2019-02-07T17:43:45.442Z,19.92
2019-02-07T17:46:17.204Z,18.82
2019-02-07T17:48:48.910Z,20.37
2019-02-07T17:51:23.521Z,18.62
2019-02-07T17:53:54.611Z,21.40
2019-02-07T17:56:26.244Z,21.48
2019-02-07T17:58:57.604Z,23.87
2019-02-07T18:01:29.274Z,20.15
2019-02-07T18:04:00.683Z,21.02
2019-02-07T18:06:32.033Z,21.33
2019-02-07T18:09:04.114Z,22.77
2019-02-07T18:11:36.981Z,21.55
2019-02-07T18:14:08.479Z,20.40
2019-02-07T18:16:40.439Z,21.27
2019-02-07T18:19:11.870Z,23.77
2019-02-07T18:21:43.522Z,21.75
2019-02-07T18:24:14.863Z,23.27
2019-02-07T18:26:46.219Z,23.20
2019-02-07T18:29:18.452Z,27.30
2019-02-07T18:31:50.143Z,23.22
2019-02-07T18:34:22.219Z,22.22
2019-02-07T18:36:53.354Z,27.58
2019-02-07T18:39:24.707Z,23.50
2019-02-07T18:41:56.774Z,22.85
2019-02-07T18:44:28.919Z,19.07
2019-02-07T18:47:00.560Z,17.90
2019-02-07T18:49:31.807Z,22.67
2019-02-07T18:52:03.467Z,18.42
2019-02-07T18:54:35.845Z,19.87
2019-02-07T18:57:07.751Z,19.25
2019-02-07T18:59:38.779Z,24.30
2019-02-07T19:02:10.625Z,22.98
2019-02-07T19:04:42.335Z,17.45
2019-02-07T19:07:14.034Z,18.52
2019-02-07T19:09:46.222Z,19.02
2019-02-07T19:12:18.045Z,26.17
2019-02-07T19:14:50.167Z,16.57
2019-02-07T19:17:21.884Z,21.02
2019-02-07T19:19:53.866Z,20.15
2019-02-07T19:22:26.115Z,20.17
2019-02-07T19:24:57.314Z,15.35
2019-02-07T19:27:28.727Z,18.80
2019-02-07T19:30:01.257Z,16.82
2019-02-07T19:32:32.599Z,19.52
2019-02-07T19:35:04.183Z,18.52
2019-02-07T19:37:35.614Z,17.12
2019-02-07T19:40:09.698Z,15.68
2019-02-07T19:42:41.337Z,19.42
2019-02-07T19:45:14.029Z,18.55
2019-02-07T19:47:46.352Z,19.95
2019-02-07T19:50:22.262Z,20.43
2019-02-07T19:52:54.167Z,22.58
2019-02-07T19:55:27.840Z,17.87
2019-02-07T19:58:01.035Z,19.05
2019-02-07T20:00:33.633Z,17.30
2019-02-07T20:03:05.491Z,21.45
2019-02-07T20:05:37.149Z,20.32
2019-02-07T20:08:09.012Z,19.75
2019-02-07T20:10:41.137Z,19.85
2019-02-07T20:13:12.611Z,21.27
2019-02-07T20:15:44.928Z,20.95
2019-02-07T20:18:16.240Z,23.45
2019-02-07T20:20:48.159Z,19.95
2019-02-07T20:23:20.945Z,16.25
2019-02-07T20:25:52.280Z,22.37
2019-02-07T20:28:24.167Z,18.07
2019-02-07T20:30:55.897Z,21.35
2019-02-07T20:33:27.808Z,21.45
2019-02-07T20:35:59.961Z,22.90
2019-02-07T20:38:31.263Z,21.35
2019-02-07T20:41:02.571Z,23.85
2019-02-07T20:43:34.474Z,22.40
2019-02-07T20:46:07.811Z,21.37
2019-02-07T20:48:39.885Z,21.68
2019-02-07T20:51:11.559Z,22.22
2019-02-07T20:53:43.386Z,22.70
2019-02-07T20:56:14.784Z,18.50
2019-02-07T20:58:46.176Z,22.10
2019-02-07T21:01:17.732Z,20.17
2019-02-07T21:03:49.600Z,16.12
2019-02-07T21:06:21.262Z,21.48
2019-02-07T21:08:53.223Z,19.35
2019-02-07T21:11:24.863Z,16.50
2019-02-07T21:13:56.735Z,22.55
2019-02-07T21:16:28.582Z,23.50
2019-02-07T21:19:01.319Z,17.92
2019-02-07T21:21:32.342Z,20.43
2019-02-07T21:24:03.755Z,18.07
2019-02-07T21:26:35.408Z,18.00
2019-02-07T21:29:06.966Z,22.85
2019-02-07T21:31:39.596Z,19.12
2019-02-07T21:34:11.222Z,22.67
2019-02-07T21:36:43.152Z,18.65
2019-02-07T21:39:14.589Z,17.10
2019-02-07T21:41:45.882Z,20.92
2019-02-07T21:44:17.842Z,20.40
2019-02-07T21:46:49.729Z,20.35
2019-02-07T21:49:21.574Z,20.27
2019-02-07T21:51:53.608Z,17.77
2019-02-07T21:54:25.487Z,21.02
2019-02-07T21:56:56.798Z,17.95
2019-02-07T21:59:29.486Z,17.70
2019-02-07T22:02:01.475Z,16.95
2019-02-07T22:04:33.428Z,19.52
2019-02-07T22:07:04.911Z,18.98
2019-02-07T22:09:36.844Z,21.10
2019-02-07T22:12:09.166Z,25.77
2019-02-07T22:14:41.073Z,20.70
2019-02-07T22:17:13.905Z,18.02
2019-02-07T22:19:45.475Z,24.07
2019-02-07T22:22:17.366Z,19.12
2019-02-07T22:24:49.851Z,19.30
2019-02-07T22:27:22.080Z,20.77
2019-02-07T22:29:53.444Z,20.10
2019-02-07T22:32:24.786Z,19.73
2019-02-07T22:34:56.553Z,20.10
2019-02-07T22:37:28.009Z,16.35
2019-02-07T22:39:59.964Z,19.25
2019-02-07T22:42:31.405Z,18.55
2019-02-07T22:45:03.630Z,15.60
2019-02-07T22:47:35.480Z,16.12
2019-02-07T22:50:15.035Z,18.95
2019-02-07T22:52:46.378Z,17.25
2019-02-07T22:55:19.862Z,15.60
2019-02-07T22:57:51.703Z,14.98
2019-02-07T23:01:14.273Z,16.55
2019-02-07T23:03:51.760Z,15.68
2019-02-07T23:06:23.655Z,15.93
2019-02-07T23:08:55.090Z,15.05
2019-02-07T23:11:26.710Z,15.25
2019-02-07T23:13:57.718Z,12.07
2019-02-07T23:16:30.317Z,13.72
2019-02-07T23:19:02.683Z,13.13
2019-02-07T23:21:34.861Z,16.48
2019-02-07T23:24:07.622Z,13.13
2019-02-07T23:26:39.478Z,18.05
2019-02-07T23:29:12.054Z,15.58
2019-02-07T23:31:43.530Z,15.28
2019-02-07T23:34:15.391Z,16.62
2019-02-07T23:36:47.264Z,13.78
2019-02-07T23:39:18.910Z,14.83
2019-02-07T23:41:51.248Z,11.97
2019-02-07T23:44:22.253Z,12.58
2019-02-07T23:46:53.521Z,14.35
2019-02-07T23:49:25.356Z,15.32
2019-02-07T23:51:56.833Z,13.30
2019-02-07T23:54:28.391Z,16.37
2019-02-07T23:57:00.135Z,17.85
2019-02-07T23:59:31.717Z,14.28
